Trawscoed, United Kingdom
Current Conditions -  °F | °C
As of 4:50 AM on Tuesday 21 Oct 2014 (Local Time) from EGOP Reporting Station
Broken Clouds Broken Clouds  
Wind Chill: 15°   Ceiling: 2800
Heat Index: 15°   Visibility: 4mi
Dew Point: 12°   Wind: 37mph
Humidity: 82%   Direction: 260°W
Pressure: 29.59"   Gusts: NA
Location:  52.35°N, 3.95°W
Report Text: EGOP 210350Z AUTO 26032KT 7000 // FEW019/// BKN028/// 15/12 Q1002
Loading
Personal Weather Stations






























Interactive Weather Map
Tropical Storm Tracking
New forecast layout! Learn more

10-Day Weather Forecast

Advertisements
Track Severe Weather on mobile